Main page
METAR-TAF:

METAR-TAF

Airports :

Bahrain International Airport

Bahrain, Bahrain

latitude: 26-16N, longitude: 050-39E, elevation: 2 m

Current weather observation

The report was made 36 minutes ago, at 00:00 UTC
Wind 5 kt from the Southeast
Temperature 18°C
Humidity 83%
Pressure 1016 hPa
Visibility: 6000 m

METAR: OBBI 180000Z 13005KT 6000 NSC 18/15 Q1016 NOSIG

Time: 03:36 (00:36 UTC)

Forecast

The report was made 1 hour and 36 minutes ago, at 23:00 UTC
Forecast valid from 18 at 00 UTC to 19 at 06 UTC
Wind 10 kt from the Southeast
Visibility: 8000 m
Probability 30% :
Temporary
from 18 at 01 UTC to 18 at 05 UTC
Visibility: 4000 m
Scattered clouds at a height of 100 ft
haze

TAF: OBBI 172300Z 1800/1906 13010KT 8000 NSC PROB30 TEMPO 1801/1805 4000 HZ SCT001

Weather observations and forecasts of more than 4000 airports (METAR and TAF reports).

The available stations are represented by yellow and red dots on the map.

Hover mouse over dot to see the name of the station.

Then click to see weather observations and forecasts.

To change the map : click on the green buttons with a black cross to zoom in, on the green button with a dash to zoom out, or on the green arrows for adjacent maps.


METAR-TAF: